sensor_id;sensor_type;location;lat;lon;timestamp;P1;durP1;ratioP1;P2;durP2;ratioP2
19810;SDS011;10065;49.632;8.346;2023-03-23T00:00:13;1.63;;;0.73;;
19810;SDS011;10065;49.632;8.346;2023-03-23T00:02:40;3.07;;;0.80;;
19810;SDS011;10065;49.632;8.346;2023-03-23T00:05:10;4.50;;;1.10;;
19810;SDS011;10065;49.632;8.346;2023-03-23T00:07:37;1.80;;;0.87;;
19810;SDS011;10065;49.632;8.346;2023-03-23T00:10:10;2.60;;;1.10;;
19810;SDS011;10065;49.632;8.346;2023-03-23T00:12:37;2.87;;;1.00;;
19810;SDS011;10065;49.632;8.346;2023-03-23T00:15:08;3.60;;;1.30;;
19810;SDS011;10065;49.632;8.346;2023-03-23T00:17:38;1.70;;;0.80;;
19810;SDS011;10065;49.632;8.346;2023-03-23T00:20:06;1.63;;;0.90;;
19810;SDS011;10065;49.632;8.346;2023-03-23T00:22:36;2.07;;;0.80;;
19810;SDS011;10065;49.632;8.346;2023-03-23T00:25:04;2.17;;;0.97;;
19810;SDS011;10065;49.632;8.346;2023-03-23T00:27:31;1.30;;;0.60;;
19810;SDS011;10065;49.632;8.346;2023-03-23T00:29:57;1.83;;;0.87;;
19810;SDS011;10065;49.632;8.346;2023-03-23T00:32:24;2.47;;;1.10;;
19810;SDS011;10065;49.632;8.346;2023-03-23T00:34:53;3.17;;;1.33;;
19810;SDS011;10065;49.632;8.346;2023-03-23T00:37:21;8.50;;;1.10;;
19810;SDS011;10065;49.632;8.346;2023-03-23T00:39:49;2.53;;;1.03;;
19810;SDS011;10065;49.632;8.346;2023-03-23T00:42:16;4.57;;;1.10;;
19810;SDS011;10065;49.632;8.346;2023-03-23T00:44:44;2.27;;;0.90;;
19810;SDS011;10065;49.632;8.346;2023-03-23T00:47:11;1.97;;;1.20;;
19810;SDS011;10065;49.632;8.346;2023-03-23T00:49:38;1.73;;;0.90;;
19810;SDS011;10065;49.632;8.346;2023-03-23T00:52:06;3.20;;;1.33;;
19810;SDS011;10065;49.632;8.346;2023-03-23T00:54:33;2.63;;;1.10;;
19810;SDS011;10065;49.632;8.346;2023-03-23T00:57:03;3.40;;;1.20;;
19810;SDS011;10065;49.632;8.346;2023-03-23T00:59:30;2.67;;;1.43;;
19810;SDS011;10065;49.632;8.346;2023-03-23T01:01:57;2.77;;;0.97;;
19810;SDS011;10065;49.632;8.346;2023-03-23T01:04:23;7.57;;;1.40;;
19810;SDS011;10065;49.632;8.346;2023-03-23T01:06:51;3.53;;;1.37;;
19810;SDS011;10065;49.632;8.346;2023-03-23T01:09:18;3.37;;;1.33;;
19810;SDS011;10065;49.632;8.346;2023-03-23T01:11:46;3.00;;;1.33;;
19810;SDS011;10065;49.632;8.346;2023-03-23T01:14:15;2.57;;;1.33;;
19810;SDS011;10065;49.632;8.346;2023-03-23T01:16:43;2.40;;;1.10;;
19810;SDS011;10065;49.632;8.346;2023-03-23T01:19:10;3.13;;;1.40;;
19810;SDS011;10065;49.632;8.346;2023-03-23T01:21:37;5.33;;;1.20;;
19810;SDS011;10065;49.632;8.346;2023-03-23T01:24:04;3.07;;;1.27;;
19810;SDS011;10065;49.632;8.346;2023-03-23T01:26:31;2.30;;;1.20;;
19810;SDS011;10065;49.632;8.346;2023-03-23T01:28:58;3.23;;;1.27;;
19810;SDS011;10065;49.632;8.346;2023-03-23T01:31:26;2.40;;;1.10;;
19810;SDS011;10065;49.632;8.346;2023-03-23T01:33:52;2.87;;;1.17;;
19810;SDS011;10065;49.632;8.346;2023-03-23T01:36:21;2.53;;;1.40;;
19810;SDS011;10065;49.632;8.346;2023-03-23T01:38:50;3.53;;;1.03;;
19810;SDS011;10065;49.632;8.346;2023-03-23T01:41:17;3.77;;;1.40;;
19810;SDS011;10065;49.632;8.346;2023-03-23T01:43:54;3.17;;;1.10;;
19810;SDS011;10065;49.632;8.346;2023-03-23T01:46:22;2.80;;;1.30;;
19810;SDS011;10065;49.632;8.346;2023-03-23T01:48:52;3.33;;;1.43;;
19810;SDS011;10065;49.632;8.346;2023-03-23T01:51:20;3.13;;;1.10;;
19810;SDS011;10065;49.632;8.346;2023-03-23T01:53:48;1.60;;;0.90;;
19810;SDS011;10065;49.632;8.346;2023-03-23T01:56:20;1.93;;;1.00;;
19810;SDS011;10065;49.632;8.346;2023-03-23T01:58:51;5.07;;;1.57;;
19810;SDS011;10065;49.632;8.346;2023-03-23T02:01:19;2.20;;;1.00;;
19810;SDS011;10065;49.632;8.346;2023-03-23T02:03:50;4.97;;;1.00;;
19810;SDS011;10065;49.632;8.346;2023-03-23T02:06:23;3.83;;;1.20;;
19810;SDS011;10065;49.632;8.346;2023-03-23T02:08:50;4.60;;;1.40;;
19810;SDS011;10065;49.632;8.346;2023-03-23T02:11:19;2.73;;;1.10;;
19810;SDS011;10065;49.632;8.346;2023-03-23T02:13:47;2.83;;;1.43;;
19810;SDS011;10065;49.632;8.346;2023-03-23T02:16:18;4.23;;;1.20;;
19810;SDS011;10065;49.632;8.346;2023-03-23T02:18:56;3.70;;;1.30;;
19810;SDS011;10065;49.632;8.346;2023-03-23T02:24:29;4.30;;;1.30;;
19810;SDS011;10065;49.632;8.346;2023-03-23T02:27:10;2.47;;;1.17;;
19810;SDS011;10065;49.632;8.346;2023-03-23T02:29:52;2.47;;;1.10;;
19810;SDS011;10065;49.632;8.346;2023-03-23T02:32:41;3.27;;;1.30;;
19810;SDS011;10065;49.632;8.346;2023-03-23T02:35:28;3.77;;;1.27;;
19810;SDS011;10065;49.632;8.346;2023-03-23T02:38:01;2.97;;;1.00;;
19810;SDS011;10065;49.632;8.346;2023-03-23T02:40:32;2.43;;;1.00;;
19810;SDS011;10065;49.632;8.346;2023-03-23T02:43:06;4.07;;;1.60;;
19810;SDS011;10065;49.632;8.346;2023-03-23T02:45:34;3.40;;;1.30;;
19810;SDS011;10065;49.632;8.346;2023-03-23T02:48:02;3.23;;;0.90;;
19810;SDS011;10065;49.632;8.346;2023-03-23T02:50:32;5.43;;;1.77;;
19810;SDS011;10065;49.632;8.346;2023-03-23T02:53:02;2.93;;;1.20;;
19810;SDS011;10065;49.632;8.346;2023-03-23T02:55:33;1.73;;;1.00;;
19810;SDS011;10065;49.632;8.346;2023-03-23T02:58:05;2.67;;;1.27;;
19810;SDS011;10065;49.632;8.346;2023-03-23T03:00:32;4.20;;;1.10;;
19810;SDS011;10065;49.632;8.346;2023-03-23T03:02:58;3.07;;;1.20;;
19810;SDS011;10065;49.632;8.346;2023-03-23T03:05:31;4.63;;;1.10;;
19810;SDS011;10065;49.632;8.346;2023-03-23T03:08:08;3.77;;;1.20;;
19810;SDS011;10065;49.632;8.346;2023-03-23T03:10:44;2.70;;;1.10;;
19810;SDS011;10065;49.632;8.346;2023-03-23T03:13:20;2.33;;;1.17;;
19810;SDS011;10065;49.632;8.346;2023-03-23T03:15:56;3.50;;;1.10;;
19810;SDS011;10065;49.632;8.346;2023-03-23T03:18:26;2.07;;;1.10;;
19810;SDS011;10065;49.632;8.346;2023-03-23T03:20:59;5.57;;;1.07;;
19810;SDS011;10065;49.632;8.346;2023-03-23T03:23:31;3.03;;;1.13;;
19810;SDS011;10065;49.632;8.346;2023-03-23T03:25:59;3.47;;;1.23;;
19810;SDS011;10065;49.632;8.346;2023-03-23T03:28:30;2.47;;;1.20;;
19810;SDS011;10065;49.632;8.346;2023-03-23T03:30:58;2.80;;;1.17;;
19810;SDS011;10065;49.632;8.346;2023-03-23T03:33:29;3.50;;;1.40;;
19810;SDS011;10065;49.632;8.346;2023-03-23T03:36:00;2.37;;;0.97;;
19810;SDS011;10065;49.632;8.346;2023-03-23T03:38:29;2.20;;;1.10;;
19810;SDS011;10065;49.632;8.346;2023-03-23T03:40:56;3.43;;;1.30;;
19810;SDS011;10065;49.632;8.346;2023-03-23T03:43:23;3.13;;;1.63;;
19810;SDS011;10065;49.632;8.346;2023-03-23T03:45:49;2.63;;;1.10;;
19810;SDS011;10065;49.632;8.346;2023-03-23T03:48:16;2.00;;;1.13;;
19810;SDS011;10065;49.632;8.346;2023-03-23T03:50:43;2.30;;;1.33;;
19810;SDS011;10065;49.632;8.346;2023-03-23T03:53:11;2.70;;;1.30;;
19810;SDS011;10065;49.632;8.346;2023-03-23T03:55:38;3.13;;;1.37;;
19810;SDS011;10065;49.632;8.346;2023-03-23T03:58:11;3.30;;;1.40;;
19810;SDS011;10065;49.632;8.346;2023-03-23T04:00:37;2.83;;;1.10;;
19810;SDS011;10065;49.632;8.346;2023-03-23T04:03:05;2.30;;;1.10;;
19810;SDS011;10065;49.632;8.346;2023-03-23T04:05:32;1.67;;;1.17;;
19810;SDS011;10065;49.632;8.346;2023-03-23T04:07:59;4.43;;;1.40;;
19810;SDS011;10065;49.632;8.346;2023-03-23T04:10:29;2.40;;;1.10;;
19810;SDS011;10065;49.632;8.346;2023-03-23T04:12:56;2.60;;;1.23;;
19810;SDS011;10065;49.632;8.346;2023-03-23T04:15:23;3.83;;;1.40;;
19810;SDS011;10065;49.632;8.346;2023-03-23T04:17:51;1.97;;;1.03;;
19810;SDS011;10065;49.632;8.346;2023-03-23T04:20:18;3.00;;;1.33;;
19810;SDS011;10065;49.632;8.346;2023-03-23T04:22:45;2.47;;;1.13;;
19810;SDS011;10065;49.632;8.346;2023-03-23T04:25:14;3.53;;;1.23;;
19810;SDS011;10065;49.632;8.346;2023-03-23T04:27:47;3.97;;;1.40;;
19810;SDS011;10065;49.632;8.346;2023-03-23T04:30:17;4.03;;;1.20;;
19810;SDS011;10065;49.632;8.346;2023-03-23T04:32:45;1.73;;;1.00;;
19810;SDS011;10065;49.632;8.346;2023-03-23T04:35:15;2.30;;;1.03;;
19810;SDS011;10065;49.632;8.346;2023-03-23T04:37:43;2.50;;;1.00;;
19810;SDS011;10065;49.632;8.346;2023-03-23T04:40:11;1.60;;;1.10;;
19810;SDS011;10065;49.632;8.346;2023-03-23T04:42:40;1.77;;;0.93;;
19810;SDS011;10065;49.632;8.346;2023-03-23T04:45:12;2.17;;;1.20;;
19810;SDS011;10065;49.632;8.346;2023-03-23T04:47:40;2.50;;;1.00;;
19810;SDS011;10065;49.632;8.346;2023-03-23T04:50:18;2.97;;;1.30;;
19810;SDS011;10065;49.632;8.346;2023-03-23T04:52:46;3.47;;;1.10;;
19810;SDS011;10065;49.632;8.346;2023-03-23T04:55:14;3.13;;;1.03;;
19810;SDS011;10065;49.632;8.346;2023-03-23T04:57:40;4.00;;;1.20;;
19810;SDS011;10065;49.632;8.346;2023-03-23T05:00:08;2.77;;;1.10;;
19810;SDS011;10065;49.632;8.346;2023-03-23T05:02:40;2.00;;;1.10;;
19810;SDS011;10065;49.632;8.346;2023-03-23T05:05:08;2.43;;;1.07;;
19810;SDS011;10065;49.632;8.346;2023-03-23T05:07:37;3.40;;;1.00;;
19810;SDS011;10065;49.632;8.346;2023-03-23T05:10:04;3.10;;;1.20;;
19810;SDS011;10065;49.632;8.346;2023-03-23T05:12:32;5.93;;;1.20;;
19810;SDS011;10065;49.632;8.346;2023-03-23T05:14:59;2.20;;;1.13;;
19810;SDS011;10065;49.632;8.346;2023-03-23T05:17:26;3.17;;;1.03;;
19810;SDS011;10065;49.632;8.346;2023-03-23T05:19:56;5.70;;;1.33;;
19810;SDS011;10065;49.632;8.346;2023-03-23T05:22:23;2.23;;;1.00;;
19810;SDS011;10065;49.632;8.346;2023-03-23T05:24:52;2.63;;;1.07;;
19810;SDS011;10065;49.632;8.346;2023-03-23T05:27:19;5.30;;;1.40;;
19810;SDS011;10065;49.632;8.346;2023-03-23T05:29:46;3.00;;;1.10;;
19810;SDS011;10065;49.632;8.346;2023-03-23T05:32:14;4.10;;;1.47;;
19810;SDS011;10065;49.632;8.346;2023-03-23T05:34:41;4.67;;;1.40;;
19810;SDS011;10065;49.632;8.346;2023-03-23T05:37:10;2.57;;;1.30;;
19810;SDS011;10065;49.632;8.346;2023-03-23T05:39:37;3.03;;;1.47;;
19810;SDS011;10065;49.632;8.346;2023-03-23T05:42:05;1.97;;;0.97;;
19810;SDS011;10065;49.632;8.346;2023-03-23T05:44:33;1.83;;;1.00;;
19810;SDS011;10065;49.632;8.346;2023-03-23T05:46:59;2.97;;;1.10;;
19810;SDS011;10065;49.632;8.346;2023-03-23T05:49:26;4.93;;;1.40;;
19810;SDS011;10065;49.632;8.346;2023-03-23T05:51:53;3.03;;;1.27;;
19810;SDS011;10065;49.632;8.346;2023-03-23T05:54:21;2.70;;;1.13;;
19810;SDS011;10065;49.632;8.346;2023-03-23T05:56:48;2.03;;;1.10;;
19810;SDS011;10065;49.632;8.346;2023-03-23T05:59:15;4.37;;;1.40;;
19810;SDS011;10065;49.632;8.346;2023-03-23T06:01:41;4.23;;;1.30;;
19810;SDS011;10065;49.632;8.346;2023-03-23T06:04:08;1.90;;;1.10;;
19810;SDS011;10065;49.632;8.346;2023-03-23T06:06:37;2.60;;;1.30;;
19810;SDS011;10065;49.632;8.346;2023-03-23T06:09:03;2.40;;;1.20;;
19810;SDS011;10065;49.632;8.346;2023-03-23T06:11:31;3.03;;;1.50;;
19810;SDS011;10065;49.632;8.346;2023-03-23T06:13:58;3.27;;;1.40;;
19810;SDS011;10065;49.632;8.346;2023-03-23T06:16:25;3.67;;;1.50;;
19810;SDS011;10065;49.632;8.346;2023-03-23T06:18:51;2.27;;;1.27;;
19810;SDS011;10065;49.632;8.346;2023-03-23T06:21:18;3.93;;;1.53;;
19810;SDS011;10065;49.632;8.346;2023-03-23T06:23:46;2.23;;;1.23;;
19810;SDS011;10065;49.632;8.346;2023-03-23T06:26:14;4.07;;;1.20;;
19810;SDS011;10065;49.632;8.346;2023-03-23T06:28:44;2.83;;;1.20;;
19810;SDS011;10065;49.632;8.346;2023-03-23T06:31:10;2.77;;;1.43;;
19810;SDS011;10065;49.632;8.346;2023-03-23T06:33:39;3.57;;;1.53;;
19810;SDS011;10065;49.632;8.346;2023-03-23T06:36:06;3.53;;;1.20;;
19810;SDS011;10065;49.632;8.346;2023-03-23T06:38:34;3.77;;;1.60;;
19810;SDS011;10065;49.632;8.346;2023-03-23T06:41:01;2.33;;;1.30;;
19810;SDS011;10065;49.632;8.346;2023-03-23T06:43:27;2.27;;;1.20;;
19810;SDS011;10065;49.632;8.346;2023-03-23T06:45:57;6.33;;;1.40;;
19810;SDS011;10065;49.632;8.346;2023-03-23T06:48:24;3.30;;;1.37;;
19810;SDS011;10065;49.632;8.346;2023-03-23T06:50:52;3.20;;;1.27;;
19810;SDS011;10065;49.632;8.346;2023-03-23T06:53:18;2.53;;;1.20;;
19810;SDS011;10065;49.632;8.346;2023-03-23T06:55:45;4.17;;;1.53;;
19810;SDS011;10065;49.632;8.346;2023-03-23T06:58:12;2.47;;;1.17;;
19810;SDS011;10065;49.632;8.346;2023-03-23T07:00:39;2.17;;;1.37;;
19810;SDS011;10065;49.632;8.346;2023-03-23T07:03:07;2.80;;;1.10;;
19810;SDS011;10065;49.632;8.346;2023-03-23T07:05:34;3.00;;;1.10;;
19810;SDS011;10065;49.632;8.346;2023-03-23T07:08:01;2.63;;;1.17;;
19810;SDS011;10065;49.632;8.346;2023-03-23T07:10:29;5.17;;;1.80;;
19810;SDS011;10065;49.632;8.346;2023-03-23T07:12:56;2.47;;;1.23;;
19810;SDS011;10065;49.632;8.346;2023-03-23T07:15:24;4.27;;;1.33;;
19810;SDS011;10065;49.632;8.346;2023-03-23T07:17:51;5.33;;;1.63;;
19810;SDS011;10065;49.632;8.346;2023-03-23T07:20:20;2.77;;;1.47;;
19810;SDS011;10065;49.632;8.346;2023-03-23T07:22:47;3.10;;;1.13;;
19810;SDS011;10065;49.632;8.346;2023-03-23T07:25:15;2.40;;;1.20;;
19810;SDS011;10065;49.632;8.346;2023-03-23T07:27:41;4.17;;;1.40;;
19810;SDS011;10065;49.632;8.346;2023-03-23T07:30:10;3.13;;;1.40;;
19810;SDS011;10065;49.632;8.346;2023-03-23T07:32:38;2.60;;;1.03;;
19810;SDS011;10065;49.632;8.346;2023-03-23T07:35:05;2.87;;;1.27;;
19810;SDS011;10065;49.632;8.346;2023-03-23T07:37:34;4.67;;;1.23;;
19810;SDS011;10065;49.632;8.346;2023-03-23T07:40:01;2.23;;;1.10;;
19810;SDS011;10065;49.632;8.346;2023-03-23T07:42:39;2.07;;;1.17;;
19810;SDS011;10065;49.632;8.346;2023-03-23T07:45:08;2.83;;;1.30;;
19810;SDS011;10065;49.632;8.346;2023-03-23T07:47:35;2.50;;;0.93;;
19810;SDS011;10065;49.632;8.346;2023-03-23T07:50:02;1.30;;;0.80;;
19810;SDS011;10065;49.632;8.346;2023-03-23T07:52:28;1.83;;;1.00;;
19810;SDS011;10065;49.632;8.346;2023-03-23T07:54:57;1.23;;;0.90;;
19810;SDS011;10065;49.632;8.346;2023-03-23T07:57:26;3.33;;;0.90;;
19810;SDS011;10065;49.632;8.346;2023-03-23T07:59:53;2.40;;;1.03;;
19810;SDS011;10065;49.632;8.346;2023-03-23T08:02:20;2.63;;;1.00;;
19810;SDS011;10065;49.632;8.346;2023-03-23T08:04:47;2.67;;;0.87;;
19810;SDS011;10065;49.632;8.346;2023-03-23T08:07:14;1.33;;;0.80;;
19810;SDS011;10065;49.632;8.346;2023-03-23T08:09:42;2.30;;;1.07;;
19810;SDS011;10065;49.632;8.346;2023-03-23T08:12:10;1.13;;;0.70;;
19810;SDS011;10065;49.632;8.346;2023-03-23T08:14:37;1.60;;;0.80;;
19810;SDS011;10065;49.632;8.346;2023-03-23T08:17:05;2.17;;;1.13;;
19810;SDS011;10065;49.632;8.346;2023-03-23T08:19:31;2.83;;;0.97;;
19810;SDS011;10065;49.632;8.346;2023-03-23T08:22:01;1.60;;;1.00;;
19810;SDS011;10065;49.632;8.346;2023-03-23T08:24:29;1.57;;;0.80;;
19810;SDS011;10065;49.632;8.346;2023-03-23T08:26:55;5.07;;;1.10;;
19810;SDS011;10065;49.632;8.346;2023-03-23T08:29:23;2.97;;;1.10;;
19810;SDS011;10065;49.632;8.346;2023-03-23T08:31:50;2.47;;;1.10;;
19810;SDS011;10065;49.632;8.346;2023-03-23T08:34:17;2.57;;;1.10;;
19810;SDS011;10065;49.632;8.346;2023-03-23T08:36:44;2.13;;;0.80;;
19810;SDS011;10065;49.632;8.346;2023-03-23T08:39:11;1.03;;;0.70;;
19810;SDS011;10065;49.632;8.346;2023-03-23T08:41:39;3.90;;;1.10;;
19810;SDS011;10065;49.632;8.346;2023-03-23T08:44:06;2.20;;;1.10;;
19810;SDS011;10065;49.632;8.346;2023-03-23T08:46:35;1.90;;;0.83;;
19810;SDS011;10065;49.632;8.346;2023-03-23T08:49:02;1.73;;;0.90;;
19810;SDS011;10065;49.632;8.346;2023-03-23T08:51:29;2.23;;;0.90;;
19810;SDS011;10065;49.632;8.346;2023-03-23T08:53:55;3.00;;;1.10;;
19810;SDS011;10065;49.632;8.346;2023-03-23T08:56:22;1.43;;;0.70;;
19810;SDS011;10065;49.632;8.346;2023-03-23T08:58:49;1.67;;;0.80;;
19810;SDS011;10065;49.632;8.346;2023-03-23T09:01:15;2.93;;;0.83;;
19810;SDS011;10065;49.632;8.346;2023-03-23T09:03:44;3.40;;;1.07;;
19810;SDS011;10065;49.632;8.346;2023-03-23T09:06:11;2.70;;;1.13;;
19810;SDS011;10065;49.632;8.346;2023-03-23T09:08:37;3.33;;;1.00;;
19810;SDS011;10065;49.632;8.346;2023-03-23T09:11:06;4.73;;;1.40;;
19810;SDS011;10065;49.632;8.346;2023-03-23T09:13:34;2.83;;;1.00;;
19810;SDS011;10065;49.632;8.346;2023-03-23T09:16:01;2.53;;;0.90;;
19810;SDS011;10065;49.632;8.346;2023-03-23T09:18:28;2.77;;;1.00;;
19810;SDS011;10065;49.632;8.346;2023-03-23T09:20:57;3.17;;;0.87;;
19810;SDS011;10065;49.632;8.346;2023-03-23T09:23:25;1.77;;;0.90;;
19810;SDS011;10065;49.632;8.346;2023-03-23T09:25:52;2.27;;;1.00;;
19810;SDS011;10065;49.632;8.346;2023-03-23T09:28:19;1.53;;;0.90;;
19810;SDS011;10065;49.632;8.346;2023-03-23T09:30:47;2.07;;;0.90;;
19810;SDS011;10065;49.632;8.346;2023-03-23T09:33:14;1.47;;;0.80;;
19810;SDS011;10065;49.632;8.346;2023-03-23T09:35:41;2.07;;;0.97;;
19810;SDS011;10065;49.632;8.346;2023-03-23T09:38:09;1.57;;;0.70;;
19810;SDS011;10065;49.632;8.346;2023-03-23T09:40:42;1.33;;;0.70;;
19810;SDS011;10065;49.632;8.346;2023-03-23T09:43:20;4.10;;;0.80;;
19810;SDS011;10065;49.632;8.346;2023-03-23T09:46:14;2.47;;;0.83;;
19810;SDS011;10065;49.632;8.346;2023-03-23T09:48:50;2.50;;;0.80;;
19810;SDS011;10065;49.632;8.346;2023-03-23T09:51:28;3.77;;;0.73;;
19810;SDS011;10065;49.632;8.346;2023-03-23T09:54:09;4.37;;;1.17;;
19810;SDS011;10065;49.632;8.346;2023-03-23T09:56:41;2.37;;;0.90;;
19810;SDS011;10065;49.632;8.346;2023-03-23T09:59:10;2.47;;;1.00;;
19810;SDS011;10065;49.632;8.346;2023-03-23T10:01:44;3.93;;;1.10;;
19810;SDS011;10065;49.632;8.346;2023-03-23T10:04:15;3.83;;;0.90;;
19810;SDS011;10065;49.632;8.346;2023-03-23T10:06:51;1.93;;;1.00;;
19810;SDS011;10065;49.632;8.346;2023-03-23T10:09:20;2.17;;;0.70;;
19810;SDS011;10065;49.632;8.346;2023-03-23T10:11:51;1.97;;;0.87;;
19810;SDS011;10065;49.632;8.346;2023-03-23T10:14:29;1.80;;;0.70;;
19810;SDS011;10065;49.632;8.346;2023-03-23T10:17:14;1.67;;;0.70;;
19810;SDS011;10065;49.632;8.346;2023-03-23T10:19:49;1.67;;;0.90;;
19810;SDS011;10065;49.632;8.346;2023-03-23T10:22:22;2.47;;;0.90;;
19810;SDS011;10065;49.632;8.346;2023-03-23T10:24:55;2.73;;;0.90;;
19810;SDS011;10065;49.632;8.346;2023-03-23T10:27:31;2.10;;;1.00;;
19810;SDS011;10065;49.632;8.346;2023-03-23T10:30:10;1.87;;;1.00;;
19810;SDS011;10065;49.632;8.346;2023-03-23T10:32:45;3.50;;;0.97;;
19810;SDS011;10065;49.632;8.346;2023-03-23T10:35:18;2.37;;;1.07;;
19810;SDS011;10065;49.632;8.346;2023-03-23T10:37:47;2.30;;;1.00;;
19810;SDS011;10065;49.632;8.346;2023-03-23T10:40:20;1.50;;;0.80;;
19810;SDS011;10065;49.632;8.346;2023-03-23T10:42:50;1.97;;;1.00;;
19810;SDS011;10065;49.632;8.346;2023-03-23T10:45:20;3.50;;;0.97;;
19810;SDS011;10065;49.632;8.346;2023-03-23T10:47:51;1.67;;;0.90;;
19810;SDS011;10065;49.632;8.346;2023-03-23T10:50:23;1.87;;;1.00;;
19810;SDS011;10065;49.632;8.346;2023-03-23T10:52:52;2.40;;;1.10;;
19810;SDS011;10065;49.632;8.346;2023-03-23T10:55:25;2.03;;;0.80;;
19810;SDS011;10065;49.632;8.346;2023-03-23T10:58:03;1.90;;;1.00;;
19810;SDS011;10065;49.632;8.346;2023-03-23T11:00:31;2.07;;;0.87;;
19810;SDS011;10065;49.632;8.346;2023-03-23T11:03:00;4.20;;;0.90;;
19810;SDS011;10065;49.632;8.346;2023-03-23T11:05:32;4.37;;;0.97;;
19810;SDS011;10065;49.632;8.346;2023-03-23T11:08:02;2.80;;;1.43;;
19810;SDS011;10065;49.632;8.346;2023-03-23T11:10:39;5.10;;;1.00;;
19810;SDS011;10065;49.632;8.346;2023-03-23T11:13:10;4.53;;;1.20;;
19810;SDS011;10065;49.632;8.346;2023-03-23T11:15:40;1.80;;;0.70;;
19810;SDS011;10065;49.632;8.346;2023-03-23T11:18:10;2.13;;;1.00;;
19810;SDS011;10065;49.632;8.346;2023-03-23T11:20:39;3.20;;;1.00;;
19810;SDS011;10065;49.632;8.346;2023-03-23T11:23:19;2.27;;;1.27;;
19810;SDS011;10065;49.632;8.346;2023-03-23T11:25:55;2.30;;;1.00;;
19810;SDS011;10065;49.632;8.346;2023-03-23T11:28:31;3.10;;;1.07;;
19810;SDS011;10065;49.632;8.346;2023-03-23T11:31:00;2.37;;;0.60;;
19810;SDS011;10065;49.632;8.346;2023-03-23T11:33:30;1.37;;;0.67;;
19810;SDS011;10065;49.632;8.346;2023-03-23T11:36:02;1.40;;;0.70;;
19810;SDS011;10065;49.632;8.346;2023-03-23T11:38:29;1.83;;;0.63;;
19810;SDS011;10065;49.632;8.346;2023-03-23T11:40:57;1.57;;;0.70;;
19810;SDS011;10065;49.632;8.346;2023-03-23T11:43:25;2.40;;;0.90;;
19810;SDS011;10065;49.632;8.346;2023-03-23T11:45:56;4.93;;;0.90;;
19810;SDS011;10065;49.632;8.346;2023-03-23T11:48:32;1.97;;;1.00;;
19810;SDS011;10065;49.632;8.346;2023-03-23T11:51:05;1.83;;;0.90;;
19810;SDS011;10065;49.632;8.346;2023-03-23T11:53:40;2.10;;;0.77;;
19810;SDS011;10065;49.632;8.346;2023-03-23T11:56:17;3.07;;;0.80;;
19810;SDS011;10065;49.632;8.346;2023-03-23T11:58:50;1.50;;;0.80;;
19810;SDS011;10065;49.632;8.346;2023-03-23T12:01:21;2.57;;;0.97;;
19810;SDS011;10065;49.632;8.346;2023-03-23T12:04:00;1.63;;;0.80;;
19810;SDS011;10065;49.632;8.346;2023-03-23T12:06:38;2.00;;;0.90;;
19810;SDS011;10065;49.632;8.346;2023-03-23T12:09:18;1.60;;;0.80;;
19810;SDS011;10065;49.632;8.346;2023-03-23T12:12:03;1.50;;;0.90;;
19810;SDS011;10065;49.632;8.346;2023-03-23T12:14:40;1.77;;;0.70;;
19810;SDS011;10065;49.632;8.346;2023-03-23T12:17:16;2.20;;;0.67;;
19810;SDS011;10065;49.632;8.346;2023-03-23T12:19:59;2.27;;;0.60;;
19810;SDS011;10065;49.632;8.346;2023-03-23T12:22:46;1.43;;;0.70;;
19810;SDS011;10065;49.632;8.346;2023-03-23T12:25:22;1.13;;;0.70;;
19810;SDS011;10065;49.632;8.346;2023-03-23T12:28:06;2.63;;;0.80;;
19810;SDS011;10065;49.632;8.346;2023-03-23T12:30:46;2.37;;;1.00;;
19810;SDS011;10065;49.632;8.346;2023-03-23T12:33:19;1.97;;;0.77;;
19810;SDS011;10065;49.632;8.346;2023-03-23T12:35:58;3.70;;;1.47;;
19810;SDS011;10065;49.632;8.346;2023-03-23T12:38:45;1.10;;;0.57;;
19810;SDS011;10065;49.632;8.346;2023-03-23T12:41:23;1.20;;;0.57;;
19810;SDS011;10065;49.632;8.346;2023-03-23T12:43:58;1.40;;;0.60;;
19810;SDS011;10065;49.632;8.346;2023-03-23T12:46:37;1.30;;;0.80;;
19810;SDS011;10065;49.632;8.346;2023-03-23T12:49:17;1.60;;;0.80;;
19810;SDS011;10065;49.632;8.346;2023-03-23T12:51:49;1.30;;;0.70;;
19810;SDS011;10065;49.632;8.346;2023-03-23T12:54:25;1.97;;;0.60;;
19810;SDS011;10065;49.632;8.346;2023-03-23T12:56:58;1.47;;;0.60;;
19810;SDS011;10065;49.632;8.346;2023-03-23T12:59:34;1.33;;;0.60;;
19810;SDS011;10065;49.632;8.346;2023-03-23T13:02:10;1.63;;;0.40;;
19810;SDS011;10065;49.632;8.346;2023-03-23T13:04:43;0.93;;;0.50;;
19810;SDS011;10065;49.632;8.346;2023-03-23T13:07:14;0.93;;;0.50;;
19810;SDS011;10065;49.632;8.346;2023-03-23T13:09:48;0.70;;;0.40;;
19810;SDS011;10065;49.632;8.346;2023-03-23T13:12:19;1.93;;;0.50;;
19810;SDS011;10065;49.632;8.346;2023-03-23T13:14:53;1.17;;;0.50;;
19810;SDS011;10065;49.632;8.346;2023-03-23T13:17:32;0.93;;;0.60;;
19810;SDS011;10065;49.632;8.346;2023-03-23T13:20:16;0.70;;;0.43;;
19810;SDS011;10065;49.632;8.346;2023-03-23T13:23:02;1.27;;;0.60;;
19810;SDS011;10065;49.632;8.346;2023-03-23T13:28:22;0.90;;;0.50;;
19810;SDS011;10065;49.632;8.346;2023-03-23T13:31:11;1.20;;;0.50;;
19810;SDS011;10065;49.632;8.346;2023-03-23T13:33:44;1.10;;;0.60;;
19810;SDS011;10065;49.632;8.346;2023-03-23T13:36:13;1.17;;;0.57;;
19810;SDS011;10065;49.632;8.346;2023-03-23T13:38:44;0.93;;;0.50;;
19810;SDS011;10065;49.632;8.346;2023-03-23T13:41:15;2.07;;;1.03;;
19810;SDS011;10065;49.632;8.346;2023-03-23T13:43:45;1.37;;;0.40;;
19810;SDS011;10065;49.632;8.346;2023-03-23T13:46:23;1.13;;;0.50;;
19810;SDS011;10065;49.632;8.346;2023-03-23T13:49:03;1.37;;;0.60;;
19810;SDS011;10065;49.632;8.346;2023-03-23T13:51:47;1.60;;;0.70;;
19810;SDS011;10065;49.632;8.346;2023-03-23T13:54:23;2.13;;;0.60;;
19810;SDS011;10065;49.632;8.346;2023-03-23T13:56:56;3.10;;;0.70;;
19810;SDS011;10065;49.632;8.346;2023-03-23T13:59:31;2.63;;;0.60;;
19810;SDS011;10065;49.632;8.346;2023-03-23T14:05:10;1.17;;;0.60;;
19810;SDS011;10065;49.632;8.346;2023-03-23T14:07:52;1.93;;;0.60;;
19810;SDS011;10065;49.632;8.346;2023-03-23T14:10:20;1.50;;;0.67;;
19810;SDS011;10065;49.632;8.346;2023-03-23T14:12:48;2.10;;;0.70;;
19810;SDS011;10065;49.632;8.346;2023-03-23T14:15:16;0.90;;;0.50;;
19810;SDS011;10065;49.632;8.346;2023-03-23T14:17:43;3.83;;;0.80;;
19810;SDS011;10065;49.632;8.346;2023-03-23T14:20:18;1.63;;;0.70;;
19810;SDS011;10065;49.632;8.346;2023-03-23T14:22:53;1.60;;;0.80;;
19810;SDS011;10065;49.632;8.346;2023-03-23T14:25:21;1.63;;;0.70;;
19810;SDS011;10065;49.632;8.346;2023-03-23T14:27:52;2.40;;;0.70;;
19810;SDS011;10065;49.632;8.346;2023-03-23T14:30:20;1.83;;;0.77;;
19810;SDS011;10065;49.632;8.346;2023-03-23T14:32:50;4.23;;;1.00;;
19810;SDS011;10065;49.632;8.346;2023-03-23T14:35:19;2.17;;;0.80;;
19810;SDS011;10065;49.632;8.346;2023-03-23T14:37:51;1.83;;;0.70;;
19810;SDS011;10065;49.632;8.346;2023-03-23T14:40:18;2.77;;;0.97;;
19810;SDS011;10065;49.632;8.346;2023-03-23T14:42:45;2.17;;;0.97;;
19810;SDS011;10065;49.632;8.346;2023-03-23T14:45:14;2.37;;;1.17;;
19810;SDS011;10065;49.632;8.346;2023-03-23T14:47:42;2.23;;;1.17;;
19810;SDS011;10065;49.632;8.346;2023-03-23T14:50:23;2.70;;;0.70;;
19810;SDS011;10065;49.632;8.346;2023-03-23T14:52:55;1.70;;;0.90;;
19810;SDS011;10065;49.632;8.346;2023-03-23T14:55:24;1.63;;;0.80;;
19810;SDS011;10065;49.632;8.346;2023-03-23T14:57:54;2.13;;;0.80;;
19810;SDS011;10065;49.632;8.346;2023-03-23T15:00:21;1.33;;;0.80;;
19810;SDS011;10065;49.632;8.346;2023-03-23T15:02:51;1.63;;;0.70;;
19810;SDS011;10065;49.632;8.346;2023-03-23T15:05:20;2.77;;;0.80;;
19810;SDS011;10065;49.632;8.346;2023-03-23T15:07:53;1.80;;;0.90;;
19810;SDS011;10065;49.632;8.346;2023-03-23T15:10:23;1.73;;;0.73;;
19810;SDS011;10065;49.632;8.346;2023-03-23T15:12:50;1.43;;;0.50;;
19810;SDS011;10065;49.632;8.346;2023-03-23T15:15:25;1.43;;;0.80;;